Terminal Aerodrome Forecast
Issued by NWS

Home | Current Version | Previous Version | Text Only | Print | Product List | Glossary On
Versions: 1 2 3 4 5 6 7 8 9 10 11 12 13 14 15 16 17 18 19 20 21 22 23 24 25 26
000
FTUS46 KSEW 211456 AAB
TAFSEA
TAF AMD
KSEA 211456Z 2115/2218 10008KT P6SM -RA OVC050
     FM211800 14012KT 5SM -RA BR BKN018 OVC030
      TEMPO 2118/2122 P6SM -RA SCT018 BKN035 OVC050
     FM220100 19020G30KT 5SM -RA BR OVC015
     FM221200 22014G22KT P6SM SHRA OVC015=

USA.gov is the U.S. government's official web portal to all federal, state and local government web resources and services.